createdAt,value
2019-01-03T00:01:37.520Z,97395.00
2019-01-03T00:04:46.086Z,97392.18
2019-01-03T00:07:57.425Z,97399.47
2019-01-03T00:11:11.264Z,97400.77
2019-01-03T00:14:25.968Z,97407.95
2019-01-03T00:20:35.552Z,97406.59
2019-01-03T00:23:25.180Z,97408.10
2019-01-03T00:26:15.234Z,97410.87
2019-01-03T00:29:05.074Z,97414.84
2019-01-03T00:31:55.848Z,97418.64
2019-01-03T00:34:37.121Z,97427.47
2019-01-03T00:37:22.694Z,97426.81
2019-01-03T00:43:15.712Z,97442.05
2019-01-03T00:46:19.799Z,97446.98
2019-01-03T00:49:04.909Z,97439.61
2019-01-03T00:51:55.027Z,97445.35
2019-01-03T00:54:45.244Z,97446.66
2019-01-03T00:57:34.830Z,97451.42
2019-01-03T01:03:53.963Z,97462.73
2019-01-03T01:06:44.268Z,97466.47
2019-01-03T01:09:33.889Z,97466.03
2019-01-03T01:12:23.775Z,97472.25
2019-01-03T01:15:05.415Z,97470.45
2019-01-03T01:18:14.081Z,97473.56
2019-01-03T01:21:03.764Z,97474.05
2019-01-03T01:24:12.673Z,97477.15
2019-01-03T01:30:04.932Z,97482.05
2019-01-03T01:32:56.137Z,97491.03
2019-01-03T01:35:42.800Z,97499.89
2019-01-03T01:38:34.044Z,97499.89
2019-01-03T01:41:23.987Z,97510.55
2019-01-03T01:47:09.607Z,97507.36
2019-01-03T01:50:18.252Z,97505.50
2019-01-03T01:53:08.399Z,97503.97
2019-01-03T01:56:16.945Z,97509.58
2019-01-03T02:02:08.871Z,97509.55
2019-01-03T02:05:10.285Z,97508.89
2019-01-03T02:08:14.092Z,97511.23
2019-01-03T02:11:03.735Z,97519.30
2019-01-03T02:13:53.509Z,97518.95
2019-01-03T02:16:43.112Z,97514.05
2019-01-03T02:19:24.719Z,97518.55
2019-01-03T02:22:14.326Z,97518.75
2019-01-03T02:28:21.748Z,97518.18
2019-01-03T02:31:11.687Z,97520.95
2019-01-03T02:34:07.386Z,97510.41
2019-01-03T02:36:57.575Z,97517.92
2019-01-03T02:39:48.757Z,97512.17
2019-01-03T02:45:59.617Z,97509.44
2019-01-03T02:48:50.034Z,97511.75
2019-01-03T02:51:39.868Z,97499.70
2019-01-03T02:57:32.100Z,97491.41
2019-01-03T03:00:22.007Z,97482.72
2019-01-03T03:03:11.605Z,97475.41
2019-01-03T03:06:20.556Z,97475.55
2019-01-03T03:09:29.296Z,97476.71
2019-01-03T03:12:19.195Z,97475.34
2019-01-03T03:15:08.801Z,97474.38
2019-01-03T03:17:58.705Z,97466.91
2019-01-03T03:20:48.324Z,97468.70
2019-01-03T03:23:38.824Z,97478.42
2019-01-03T03:26:28.526Z,97473.92
2019-01-03T03:29:37.487Z,97475.80
2019-01-03T03:32:26.501Z,97482.94
2019-01-03T03:35:35.424Z,97487.63
2019-01-03T03:38:25.791Z,97479.59
2019-01-03T03:41:15.715Z,97480.98
2019-01-03T03:44:26.482Z,97480.08
2019-01-03T03:47:16.438Z,97474.67
2019-01-03T03:50:06.045Z,97479.28
2019-01-03T03:56:04.344Z,97482.25
2019-01-03T03:58:54.729Z,97488.55
2019-01-03T04:01:44.397Z,97487.78
2019-01-03T04:04:34.296Z,97491.99
2019-01-03T04:07:23.892Z,97484.27
2019-01-03T04:13:15.627Z,97489.23
2019-01-03T04:16:05.788Z,97491.09
2019-01-03T04:18:55.439Z,97495.02
2019-01-03T04:21:45.154Z,97492.87
2019-01-03T04:24:34.907Z,97496.27
2019-01-03T04:27:24.616Z,97497.30
2019-01-03T04:30:15.226Z,97498.80
2019-01-03T04:33:05.136Z,97488.98
2019-01-03T04:35:55.023Z,97482.91
2019-01-03T04:38:46.167Z,97485.94
2019-01-03T04:41:36.071Z,97487.94
2019-01-03T04:44:17.336Z,97490.55
2019-01-03T04:47:06.934Z,97491.86
2019-01-03T04:56:11.668Z,97483.57
2019-01-03T04:59:01.776Z,97486.27
2019-01-03T05:02:10.949Z,97485.20
2019-01-03T05:05:00.587Z,97497.83
2019-01-03T05:08:09.474Z,97498.72
2019-01-03T05:10:59.002Z,97502.34
2019-01-03T05:14:09.071Z,97498.55
2019-01-03T05:16:58.627Z,97498.07
2019-01-03T05:19:48.510Z,97506.75
2019-01-03T05:22:38.612Z,97503.38
2019-01-03T05:25:30.826Z,97499.28
2019-01-03T05:28:20.661Z,97502.27
2019-01-03T05:31:10.643Z,97506.06
2019-01-03T05:34:00.248Z,97500.86
2019-01-03T05:39:51.899Z,97500.98
2019-01-03T05:42:41.459Z,97498.65
2019-01-03T05:45:23.594Z,97494.23
2019-01-03T05:48:13.142Z,97497.34
2019-01-03T05:50:56.564Z,97483.84
2019-01-03T05:53:46.189Z,97498.72
2019-01-03T05:56:36.187Z,97493.20
2019-01-03T05:59:26.862Z,97496.52
2019-01-03T06:05:19.357Z,97497.54
2019-01-03T06:08:09.155Z,97503.89
2019-01-03T06:10:58.716Z,97502.30
2019-01-03T06:13:48.622Z,97506.53
2019-01-03T06:16:38.269Z,97502.13
2019-01-03T06:19:28.269Z,97503.78
2019-01-03T06:22:17.945Z,97507.91
2019-01-03T06:25:07.873Z,97521.97
2019-01-03T06:27:57.556Z,97519.70
2019-01-03T06:30:47.492Z,97512.53
2019-01-03T06:33:56.073Z,97517.63
2019-01-03T06:39:46.728Z,97508.78
2019-01-03T06:42:36.300Z,97513.67
2019-01-03T06:45:26.620Z,97513.30
2019-01-03T06:48:35.196Z,97522.16
2019-01-03T06:51:24.955Z,97529.01
2019-01-03T06:54:54.382Z,97531.70
2019-01-03T06:57:44.014Z,97531.02
2019-01-03T07:00:33.711Z,97540.24
2019-01-03T07:03:23.641Z,97535.83
2019-01-03T07:09:15.772Z,97538.17
2019-01-03T07:12:24.470Z,97540.97
2019-01-03T07:18:16.210Z,97536.77
2019-01-03T07:21:05.823Z,97535.17
2019-01-03T07:26:57.698Z,97537.45
2019-01-03T07:29:39.845Z,97539.38
2019-01-03T07:32:29.502Z,97540.48
2019-01-03T07:35:38.341Z,97543.11
2019-01-03T07:38:28.372Z,97548.55
2019-01-03T07:41:18.214Z,97547.37
2019-01-03T07:44:07.893Z,97543.55
2019-01-03T07:50:13.640Z,97558.72
2019-01-03T07:53:03.231Z,97554.75
2019-01-03T07:55:53.125Z,97554.81
2019-01-03T07:58:45.055Z,97550.41
2019-01-03T08:01:32.072Z,97554.47
2019-01-03T08:04:23.129Z,97545.30
2019-01-03T08:07:13.030Z,97552.20
2019-01-03T08:10:04.245Z,97564.80
2019-01-03T08:15:57.240Z,97565.84
2019-01-03T08:18:47.444Z,97559.53
2019-01-03T08:21:37.161Z,97561.15
2019-01-03T08:24:29.513Z,97559.56
2019-01-03T08:27:38.223Z,97560.19
2019-01-03T08:30:28.476Z,97560.30
2019-01-03T08:33:20.123Z,97566.77
2019-01-03T08:36:10.006Z,97572.95
2019-01-03T08:38:59.770Z,97564.67
2019-01-03T08:41:49.661Z,97570.23
2019-01-03T08:44:39.349Z,97573.19
2019-01-03T08:47:28.944Z,97577.77
2019-01-03T08:56:35.053Z,97557.78
2019-01-03T08:59:19.057Z,97561.27
2019-01-03T09:02:11.148Z,97558.98
2019-01-03T09:05:15.242Z,97563.64
2019-01-03T09:08:01.542Z,97567.91
2019-01-03T09:11:32.151Z,97559.40
2019-01-03T09:14:21.761Z,97559.57
2019-01-03T09:17:11.899Z,97562.70
2019-01-03T09:23:04.108Z,97573.77
2019-01-03T09:29:05.434Z,97574.97
2019-01-03T09:31:55.069Z,97580.76
2019-01-03T09:34:45.091Z,97573.75
2019-01-03T09:37:34.692Z,97580.92
2019-01-03T09:40:26.193Z,97583.70
2019-01-03T09:43:16.071Z,97568.86
2019-01-03T09:45:47.140Z,97569.39
2019-01-03T09:48:29.073Z,97576.16
2019-01-03T09:51:11.033Z,97574.17
2019-01-03T09:53:41.838Z,97572.28
2019-01-03T09:56:12.878Z,97568.66
2019-01-03T09:58:55.348Z,97562.77
2019-01-03T10:01:38.013Z,97566.22
2019-01-03T10:04:09.052Z,97557.99
2019-01-03T10:10:15.448Z,97551.49
2019-01-03T10:12:46.328Z,97550.20
2019-01-03T10:15:17.468Z,97551.11
2019-01-03T10:18:07.984Z,97540.28
2019-01-03T10:20:38.770Z,97551.80
2019-01-03T10:23:09.492Z,97542.66
2019-01-03T10:25:52.189Z,97542.22
2019-01-03T10:28:34.993Z,97541.30
2019-01-03T10:31:24.545Z,97536.56
2019-01-03T10:33:55.960Z,97530.64
2019-01-03T10:36:39.829Z,97522.13
2019-01-03T10:39:22.458Z,97522.95
2019-01-03T10:41:53.250Z,97522.02
2019-01-03T10:47:35.333Z,97509.65
2019-01-03T10:53:12.811Z,97504.63
2019-01-03T10:56:23.273Z,97492.81
2019-01-03T10:58:54.098Z,97482.30
2019-01-03T11:01:24.957Z,97480.13
2019-01-03T11:03:57.451Z,97477.84
2019-01-03T11:06:28.277Z,97471.60
2019-01-03T11:09:18.360Z,97472.45
2019-01-03T11:11:49.205Z,97471.33
2019-01-03T11:17:46.234Z,97469.67
2019-01-03T11:20:19.009Z,97474.59
2019-01-03T11:22:50.106Z,97467.17
2019-01-03T11:28:24.074Z,97450.59
2019-01-03T11:30:57.344Z,97443.65
2019-01-03T11:33:40.042Z,97437.42
2019-01-03T11:36:23.729Z,97440.69
2019-01-03T11:39:13.537Z,97450.40
2019-01-03T11:41:44.642Z,97439.59
2019-01-03T11:44:27.197Z,97449.27
2019-01-03T11:47:09.419Z,97448.41
2019-01-03T11:49:40.253Z,97446.30
2019-01-03T12:05:13.325Z,97463.11
2019-01-03T12:07:56.458Z,97466.90
2019-01-03T12:10:46.668Z,97463.11
2019-01-03T12:13:18.040Z,97462.64
2019-01-03T12:15:51.319Z,97455.77
2019-01-03T12:18:41.454Z,97453.78
2019-01-03T12:23:58.954Z,97459.73
2019-01-03T12:26:48.955Z,97481.09
2019-01-03T12:29:24.177Z,97485.19
2019-01-03T12:35:16.368Z,97482.07
2019-01-03T12:43:49.914Z,97479.63
2019-01-03T12:46:20.777Z,97481.27
2019-01-03T12:48:51.598Z,97471.41
2019-01-03T12:52:00.642Z,97474.70
2019-01-03T12:54:31.517Z,97473.88
2019-01-03T12:57:02.884Z,97470.60
2019-01-03T12:59:34.334Z,97464.18
2019-01-03T13:02:18.320Z,97469.95
2019-01-03T13:07:53.357Z,97471.75
2019-01-03T13:10:36.143Z,97469.95
2019-01-03T13:13:07.113Z,97470.27
2019-01-03T13:15:38.079Z,97469.13
2019-01-03T13:18:20.401Z,97467.80
2019-01-03T13:21:02.364Z,97464.34
2019-01-03T13:23:53.145Z,97463.52
2019-01-03T13:26:43.326Z,97454.95
2019-01-03T13:32:35.738Z,97467.77
2019-01-03T13:35:06.461Z,97459.88
2019-01-03T13:40:44.770Z,97463.67
2019-01-03T13:43:15.664Z,97457.25
2019-01-03T13:45:48.127Z,97465.14
2019-01-03T13:48:30.903Z,97460.20
2019-01-03T13:54:22.962Z,97467.08
2019-01-03T14:00:06.687Z,97465.45
2019-01-03T14:02:42.653Z,97472.52
2019-01-03T14:05:43.652Z,97468.23
2019-01-03T14:08:14.595Z,97462.33
2019-01-03T14:11:04.646Z,97468.91
2019-01-03T14:13:36.196Z,97467.08
2019-01-03T14:19:48.355Z,97468.91
2019-01-03T14:22:37.980Z,97465.27
2019-01-03T14:25:10.388Z,97463.63
2019-01-03T14:27:43.059Z,97472.83
2019-01-03T14:30:14.236Z,97460.97
2019-01-03T14:32:46.046Z,97460.14
2019-01-03T14:35:37.424Z,97464.58
2019-01-03T14:38:08.229Z,97455.89
2019-01-03T14:40:39.151Z,97462.47
2019-01-03T14:43:21.831Z,97451.44
2019-01-03T14:49:36.283Z,97453.23
2019-01-03T14:52:07.253Z,97448.78
2019-01-03T14:54:40.858Z,97444.84
2019-01-03T14:57:13.552Z,97443.38
2019-01-03T15:00:22.389Z,97447.13
2019-01-03T15:02:53.624Z,97450.55
2019-01-03T15:05:24.446Z,97442.83
2019-01-03T15:08:14.620Z,97441.70
2019-01-03T15:11:04.522Z,97439.37
2019-01-03T15:13:35.314Z,97446.61
2019-01-03T15:16:06.455Z,97437.42
2019-01-03T15:18:37.459Z,97436.90
2019-01-03T15:21:15.258Z,97440.17
2019-01-03T15:24:07.315Z,97435.06
2019-01-03T15:26:38.157Z,97430.79
2019-01-03T15:29:08.967Z,97436.53
2019-01-03T15:32:01.631Z,97439.95
2019-01-03T15:34:32.544Z,97442.09
2019-01-03T15:37:03.317Z,97446.85
2019-01-03T15:39:34.456Z,97450.94
2019-01-03T15:42:05.493Z,97456.72
2019-01-03T15:47:44.956Z,97465.05
2019-01-03T15:50:15.741Z,97467.19
2019-01-03T15:52:48.197Z,97475.73
2019-01-03T15:58:19.318Z,97474.91
2019-01-03T16:01:09.354Z,97469.84
2019-01-03T16:03:59.436Z,97474.42
2019-01-03T16:06:49.286Z,97473.27
2019-01-03T16:09:20.496Z,97473.11
2019-01-03T16:12:11.001Z,97469.17
2019-01-03T16:14:41.877Z,97472.93
2019-01-03T16:20:34.163Z,97463.58
2019-01-03T16:29:03.128Z,97474.58
2019-01-03T16:31:34.365Z,97475.40
2019-01-03T16:34:24.242Z,97474.42
2019-01-03T16:42:47.859Z,97482.45
2019-01-03T16:45:37.516Z,97475.40
2019-01-03T16:48:10.385Z,97473.26
2019-01-03T16:50:55.960Z,97477.20
2019-01-03T16:57:06.323Z,97482.45
2019-01-03T17:05:43.910Z,97500.64
2019-01-03T17:08:14.814Z,97493.59
2019-01-03T17:10:58.863Z,97491.94
2019-01-03T17:13:41.357Z,97500.98
2019-01-03T17:16:12.809Z,97492.62
2019-01-03T17:18:43.639Z,97498.06
2019-01-03T17:24:17.899Z,97502.34
2019-01-03T17:27:00.451Z,97507.25
2019-01-03T17:29:42.913Z,97511.67
2019-01-03T17:35:34.998Z,97506.91
2019-01-03T17:38:05.891Z,97514.64
2019-01-03T17:43:31.333Z,97515.13
2019-01-03T17:46:03.373Z,97512.02
2019-01-03T17:48:34.201Z,97511.01
2019-01-03T17:51:17.190Z,97516.27
2019-01-03T17:54:01.563Z,97514.95
2019-01-03T18:02:37.913Z,97519.89
2019-01-03T18:05:40.376Z,97525.30
2019-01-03T18:11:12.468Z,97523.45
2019-01-03T18:14:06.880Z,97516.73
2019-01-03T18:16:57.302Z,97526.08
2019-01-03T18:19:47.653Z,97526.22
2019-01-03T18:22:37.577Z,97533.27
2019-01-03T18:25:27.162Z,97521.27
2019-01-03T18:31:19.093Z,97521.06
2019-01-03T18:33:56.550Z,97519.70
2019-01-03T18:36:27.533Z,97523.94
2019-01-03T18:39:09.496Z,97523.94
2019-01-03T18:41:52.442Z,97521.80
2019-01-03T18:44:26.383Z,97515.91
2019-01-03T18:50:35.887Z,97513.78
2019-01-03T18:56:28.110Z,97515.14
2019-01-03T19:02:00.927Z,97516.41
2019-01-03T19:04:31.757Z,97504.93
2019-01-03T19:07:23.034Z,97500.17
2019-01-03T19:10:14.421Z,97502.30
2019-01-03T19:13:08.024Z,97504.92
2019-01-03T19:21:58.053Z,97513.30
2019-01-03T19:24:31.430Z,97518.69
2019-01-03T19:27:14.960Z,97524.63
2019-01-03T19:33:08.908Z,97513.63
2019-01-03T19:35:53.298Z,97515.92
2019-01-03T19:38:24.677Z,97514.27
2019-01-03T19:41:08.576Z,97526.56
2019-01-03T19:51:16.278Z,97530.49
2019-01-03T19:54:00.915Z,97532.63
2019-01-03T19:56:31.805Z,97530.34
2019-01-03T19:59:26.017Z,97530.00
2019-01-03T20:01:56.927Z,97522.95
2019-01-03T20:04:48.617Z,97521.98
2019-01-03T20:07:19.445Z,97530.02
2019-01-03T20:09:50.233Z,97523.16
2019-01-03T20:12:23.377Z,97528.08
2019-01-03T20:14:58.153Z,97524.13
2019-01-03T20:17:28.974Z,97528.08
2019-01-03T20:20:11.636Z,97524.81
2019-01-03T20:22:53.799Z,97526.13
2019-01-03T20:25:24.620Z,97529.42
2019-01-03T20:30:59.893Z,97525.94
2019-01-03T20:33:44.830Z,97532.83
2019-01-03T20:39:37.523Z,97531.37
2019-01-03T20:45:41.837Z,97532.88
2019-01-03T20:48:20.536Z,97533.03
2019-01-03T20:51:13.680Z,97529.10
2019-01-03T20:54:03.544Z,97533.70
2019-01-03T20:56:53.445Z,97541.92
2019-01-03T21:08:20.449Z,97544.56
2019-01-03T21:17:26.947Z,97543.58
2019-01-03T21:20:00.442Z,97547.67
2019-01-03T21:25:28.497Z,97546.89
2019-01-03T21:31:37.273Z,97540.66
2019-01-03T21:34:08.122Z,97546.25
2019-01-03T21:36:59.845Z,97548.05
2019-01-03T21:39:44.739Z,97547.23
2019-01-03T21:42:15.922Z,97545.25
2019-01-03T21:44:59.613Z,97540.82
2019-01-03T21:51:28.271Z,97538.39
2019-01-03T21:54:01.666Z,97536.73
2019-01-03T21:56:52.412Z,97533.28
2019-01-03T21:59:34.291Z,97533.77
2019-01-03T22:02:25.913Z,97530.99
2019-01-03T22:05:17.398Z,97527.39
2019-01-03T22:07:50.091Z,97528.86
2019-01-03T22:10:33.832Z,97534.45
2019-01-03T22:13:25.408Z,97528.70
2019-01-03T22:15:56.462Z,97530.66
2019-01-03T22:21:31.892Z,97527.69
2019-01-03T22:24:02.777Z,97538.20
2019-01-03T22:26:53.708Z,97527.69
2019-01-03T22:33:01.969Z,97526.38
2019-01-03T22:38:36.895Z,97519.17
2019-01-03T22:41:21.223Z,97521.80
2019-01-03T22:43:52.090Z,97528.36
2019-01-03T22:55:36.491Z,97520.34
2019-01-03T22:58:07.255Z,97526.72
2019-01-03T23:00:57.757Z,97530.31
2019-01-03T23:03:47.989Z,97527.38
2019-01-03T23:06:37.800Z,97525.39
2019-01-03T23:09:09.247Z,97530.98
2019-01-03T23:11:42.087Z,97539.20
2019-01-03T23:14:23.957Z,97530.66
2019-01-03T23:16:54.940Z,97531.32
2019-01-03T23:19:25.776Z,97534.45
2019-01-03T23:22:08.017Z,97544.27
2019-01-03T23:24:50.712Z,97539.51
2019-01-03T23:27:21.643Z,97537.20
2019-01-03T23:29:52.609Z,97534.73
2019-01-03T23:32:34.663Z,97534.39
2019-01-03T23:35:18.466Z,97540.32
2019-01-03T23:37:58.842Z,97541.78
2019-01-03T23:40:31.405Z,97540.81
2019-01-03T23:43:21.725Z,97538.33
2019-01-03T23:46:11.668Z,97531.77
2019-01-03T23:57:28.231Z,97515.38
2019-01-03T23:59:59.176Z,97520.44
